createdAt,value
2018-06-08T00:03:17.735Z,99.90
2018-06-08T00:08:19.914Z,99.90
2018-06-08T00:13:22.042Z,99.90
2018-06-08T00:18:24.182Z,99.90
2018-06-08T00:23:26.315Z,99.90
2018-06-08T00:28:28.478Z,99.90
2018-06-08T00:33:30.644Z,99.90
2018-06-08T00:38:32.814Z,99.90
2018-06-08T00:43:34.973Z,99.90
2018-06-08T00:48:37.142Z,99.90
2018-06-08T00:53:39.325Z,99.90
2018-06-08T00:58:41.466Z,99.90
2018-06-08T01:03:43.638Z,99.90
2018-06-08T01:08:45.798Z,99.90
2018-06-08T01:13:47.945Z,99.90
2018-06-08T01:18:50.102Z,99.90
2018-06-08T01:23:52.277Z,99.90
2018-06-08T01:28:54.430Z,99.90
2018-06-08T01:33:56.564Z,99.90
2018-06-08T01:38:58.709Z,99.90
2018-06-08T01:44:00.842Z,99.90
2018-06-08T01:49:03.458Z,99.90
2018-06-08T01:54:05.605Z,99.90
2018-06-08T01:59:07.728Z,99.90
2018-06-08T02:04:09.893Z,99.90
2018-06-08T02:09:12.022Z,99.90
2018-06-08T02:14:14.162Z,99.90
2018-06-08T02:19:16.335Z,99.90
2018-06-08T02:24:18.471Z,99.90
2018-06-08T02:29:20.622Z,99.90
2018-06-08T02:34:22.778Z,99.90
2018-06-08T02:39:24.937Z,99.90
2018-06-08T02:44:27.066Z,99.90
2018-06-08T02:49:29.191Z,99.90
2018-06-08T02:54:31.334Z,99.90
2018-06-08T02:59:33.453Z,99.90
2018-06-08T03:04:35.587Z,99.90
2018-06-08T03:09:37.730Z,99.90
2018-06-08T03:14:39.869Z,99.90
2018-06-08T03:19:42.026Z,99.90
2018-06-08T03:24:44.163Z,99.90
2018-06-08T03:29:46.298Z,99.90
2018-06-08T03:34:48.463Z,99.90
2018-06-08T03:39:50.600Z,99.90
2018-06-08T03:44:52.764Z,99.90
2018-06-08T03:49:54.929Z,99.90
2018-06-08T03:54:57.083Z,99.90
2018-06-08T03:59:59.251Z,99.90
2018-06-08T04:05:01.411Z,99.90
2018-06-08T04:10:03.637Z,99.90
2018-06-08T04:15:05.816Z,99.90
2018-06-08T04:20:07.985Z,99.90
2018-06-08T04:25:10.162Z,99.90
2018-06-08T04:30:12.334Z,99.90
2018-06-08T04:35:14.453Z,99.90
2018-06-08T04:40:16.586Z,99.90
2018-06-08T04:45:18.719Z,99.90
2018-06-08T04:50:20.838Z,99.90
2018-06-08T04:55:23.742Z,99.90
2018-06-08T05:00:25.878Z,99.90
2018-06-08T05:05:28.010Z,99.90
2018-06-08T05:10:30.154Z,99.90
2018-06-08T05:15:32.411Z,99.90
2018-06-08T05:20:34.586Z,99.90
2018-06-08T05:25:36.717Z,99.90
2018-06-08T05:30:38.890Z,99.90
2018-06-08T05:35:41.045Z,99.90
2018-06-08T05:40:43.232Z,99.90
2018-06-08T05:45:45.397Z,99.90
2018-06-08T05:50:47.574Z,99.90
2018-06-08T05:55:49.722Z,99.90
2018-06-08T06:00:51.934Z,99.90
2018-06-08T06:05:54.109Z,99.90
2018-06-08T06:10:56.261Z,99.90
2018-06-08T06:15:58.416Z,99.90
2018-06-08T06:21:00.581Z,99.90
2018-06-08T06:26:02.778Z,99.90
2018-06-08T06:31:04.954Z,99.90
2018-06-08T06:36:07.130Z,99.90
2018-06-08T06:41:09.287Z,99.90
2018-06-08T06:46:11.498Z,99.90
2018-06-08T06:51:13.673Z,99.90
2018-06-08T06:56:15.842Z,99.90
2018-06-08T07:01:18.018Z,99.90
2018-06-08T07:06:20.194Z,99.90
2018-06-08T07:11:23.761Z,99.90
2018-06-08T07:16:25.934Z,99.90
2018-06-08T07:21:28.082Z,99.80
2018-06-08T07:26:30.223Z,93.60
2018-06-08T07:31:32.423Z,91.00
2018-06-08T07:36:34.533Z,89.30
2018-06-08T07:41:36.682Z,90.70
2018-06-08T07:46:38.832Z,90.50
2018-06-08T07:51:40.962Z,88.00
2018-06-08T07:56:43.106Z,93.30
2018-06-08T08:01:45.245Z,85.50
2018-06-08T08:06:47.399Z,90.10
2018-06-08T08:11:49.559Z,92.00
2018-06-08T08:16:51.698Z,93.90
2018-06-08T08:21:53.833Z,95.80
2018-06-08T08:26:55.970Z,97.00
2018-06-08T08:31:58.200Z,92.70
2018-06-08T08:37:00.366Z,87.20
2018-06-08T08:42:02.541Z,81.60
2018-06-08T08:47:04.729Z,82.50
2018-06-08T08:52:06.938Z,87.50
2018-06-08T08:57:09.139Z,87.60
2018-06-08T09:02:11.265Z,85.90
2018-06-08T09:07:13.458Z,83.90
2018-06-08T09:12:15.628Z,83.10
2018-06-08T09:17:17.781Z,77.40
2018-06-08T09:22:19.942Z,73.70
2018-06-08T09:27:22.116Z,75.70
2018-06-08T09:32:24.238Z,77.10
2018-06-08T09:37:26.368Z,80.00
2018-06-08T09:42:28.506Z,79.00
2018-06-08T09:47:30.794Z,83.00
2018-06-08T09:52:32.942Z,79.10
2018-06-08T09:57:35.071Z,79.50
2018-06-08T10:02:38.686Z,74.30
2018-06-08T10:07:40.834Z,72.20
2018-06-08T10:12:42.978Z,66.60
2018-06-08T10:17:45.133Z,68.10
2018-06-08T10:22:47.269Z,64.40
2018-06-08T10:27:49.416Z,62.90
2018-06-08T10:32:51.541Z,65.20
2018-06-08T10:37:53.686Z,66.20
2018-06-08T10:42:55.837Z,64.60
2018-06-08T10:47:57.990Z,65.90
2018-06-08T10:53:00.123Z,60.00
2018-06-08T10:58:02.250Z,62.50
2018-06-08T11:03:04.470Z,64.20
2018-06-08T11:08:06.605Z,61.40
2018-06-08T11:13:08.772Z,60.70
2018-06-08T11:18:10.911Z,56.90
2018-06-08T11:23:13.050Z,57.90
2018-06-08T11:28:15.213Z,58.70
2018-06-08T11:33:17.368Z,55.90
2018-06-08T11:38:19.506Z,56.70
2018-06-08T11:43:21.690Z,55.10
2018-06-08T11:48:23.845Z,56.60
2018-06-08T11:53:26.009Z,55.10
2018-06-08T11:58:28.133Z,56.50
2018-06-08T12:03:30.278Z,55.70
2018-06-08T12:08:32.415Z,54.60
2018-06-08T12:13:34.562Z,55.80
2018-06-08T12:18:36.689Z,57.10
2018-06-08T12:23:38.825Z,55.80
2018-06-08T12:28:40.948Z,54.50
2018-06-08T12:33:43.148Z,53.30
2018-06-08T12:38:45.301Z,53.10
2018-06-08T12:43:47.480Z,51.80
2018-06-08T12:48:49.664Z,49.00
2018-06-08T12:53:51.829Z,48.40
2018-06-08T12:58:54.122Z,51.90
2018-06-08T13:03:56.342Z,49.90
2018-06-08T13:08:58.499Z,51.40
2018-06-08T13:14:00.665Z,52.50
2018-06-08T13:19:02.818Z,53.40
2018-06-08T13:24:05.101Z,51.70
2018-06-08T13:29:07.273Z,52.20
2018-06-08T13:34:09.389Z,51.40
2018-06-08T13:39:11.514Z,51.60
2018-06-08T13:44:13.650Z,53.00
2018-06-08T13:49:15.803Z,50.30
2018-06-08T13:54:17.945Z,47.80
2018-06-08T13:59:20.079Z,47.80
2018-06-08T14:04:22.202Z,47.20
2018-06-08T14:09:24.331Z,49.80
2018-06-08T14:14:26.474Z,46.20
2018-06-08T14:19:29.104Z,45.90
2018-06-08T14:24:31.230Z,46.30
2018-06-08T14:29:33.396Z,46.00
2018-06-08T14:34:35.565Z,44.80
2018-06-08T14:39:37.730Z,45.60
2018-06-08T14:44:39.902Z,44.70
2018-06-08T14:49:42.061Z,45.50
2018-06-08T14:54:44.256Z,44.70
2018-06-08T14:59:46.412Z,44.70
2018-06-08T15:04:48.577Z,44.50
2018-06-08T15:09:50.826Z,45.80
2018-06-08T15:14:53.325Z,46.50
2018-06-08T15:19:55.551Z,46.60
2018-06-08T15:24:57.719Z,46.30
2018-06-08T15:29:59.888Z,48.70
2018-06-08T15:35:02.090Z,49.90
2018-06-08T15:40:04.270Z,49.40
2018-06-08T15:45:06.449Z,50.80
2018-06-08T15:50:08.567Z,50.50
2018-06-08T15:55:10.704Z,49.00
2018-06-08T16:00:12.832Z,50.30
2018-06-08T16:05:14.986Z,51.10
2018-06-08T16:10:17.145Z,53.20
2018-06-08T16:15:19.286Z,61.10
2018-06-08T16:20:21.810Z,62.90
2018-06-08T16:25:23.964Z,63.10
2018-06-08T16:30:26.162Z,60.60
2018-06-08T16:35:28.296Z,62.90
2018-06-08T16:40:30.479Z,67.00
2018-06-08T16:45:32.629Z,70.20
2018-06-08T16:50:34.766Z,69.80
2018-06-08T16:55:36.944Z,69.40
2018-06-08T17:00:42.944Z,75.90
2018-06-08T17:05:45.067Z,81.20
2018-06-08T17:10:47.205Z,79.70
2018-06-08T17:15:49.346Z,72.20
2018-06-08T17:20:51.473Z,72.40
2018-06-08T17:25:53.638Z,77.20
2018-06-08T17:30:55.809Z,76.20
2018-06-08T17:35:58.020Z,74.20
2018-06-08T17:41:00.134Z,79.20
2018-06-08T17:46:02.341Z,80.70
2018-06-08T17:51:04.695Z,77.20
2018-06-08T17:56:06.868Z,78.00
2018-06-08T18:01:09.047Z,76.80
2018-06-08T18:06:11.233Z,68.00
2018-06-08T18:11:13.415Z,67.20
2018-06-08T18:16:15.600Z,70.30
2018-06-08T18:21:17.786Z,68.30
2018-06-08T18:26:19.954Z,75.10
2018-06-08T18:31:22.122Z,79.40
2018-06-08T18:36:24.305Z,83.90
2018-06-08T18:41:26.513Z,86.30
2018-06-08T18:46:28.923Z,86.70
2018-06-08T18:51:31.137Z,87.20
2018-06-08T18:56:33.315Z,88.90
2018-06-08T19:01:35.486Z,92.80
2018-06-08T19:06:37.657Z,93.60
2018-06-08T19:11:39.814Z,92.20
2018-06-08T19:16:42.018Z,94.10
2018-06-08T19:21:44.210Z,96.30
2018-06-08T19:26:46.397Z,93.40
2018-06-08T19:31:48.691Z,94.30
2018-06-08T19:36:50.866Z,94.00
2018-06-08T19:41:53.024Z,95.10
2018-06-08T19:46:55.193Z,94.80
2018-06-08T19:51:57.420Z,95.90
2018-06-08T19:56:59.569Z,96.80
2018-06-08T20:02:01.739Z,99.90
2018-06-08T20:07:05.289Z,99.90
2018-06-08T20:12:07.457Z,99.90
2018-06-08T20:22:12.008Z,95.50
2018-06-08T20:27:14.211Z,94.70
2018-06-08T20:32:16.358Z,91.70
2018-06-08T20:37:18.520Z,89.30
2018-06-08T20:42:20.682Z,85.40
2018-06-08T20:47:22.854Z,82.00
2018-06-08T20:52:24.996Z,84.70
2018-06-08T20:57:27.942Z,86.70
2018-06-08T21:02:30.161Z,85.90
2018-06-08T21:07:32.634Z,87.20
2018-06-08T21:12:34.814Z,84.50
2018-06-08T21:17:36.975Z,82.70
2018-06-08T21:22:39.157Z,82.00
2018-06-08T21:27:41.285Z,81.60
2018-06-08T21:32:43.469Z,81.20
2018-06-08T21:37:45.614Z,82.30
2018-06-08T21:42:47.766Z,84.40
2018-06-08T21:47:49.929Z,84.00
2018-06-08T21:52:52.069Z,85.50
2018-06-08T21:57:54.227Z,84.20
2018-06-08T22:02:56.370Z,85.30
2018-06-08T22:07:58.520Z,85.70
2018-06-08T22:13:00.683Z,85.20
2018-06-08T22:18:02.826Z,86.20
2018-06-08T22:23:04.962Z,85.80
2018-06-08T22:28:07.130Z,86.50
2018-06-08T22:33:09.314Z,86.80
2018-06-08T22:38:11.482Z,86.90
2018-06-08T22:43:13.641Z,87.20
2018-06-08T22:48:15.829Z,89.30
2018-06-08T22:53:18.022Z,90.90
2018-06-08T22:58:20.181Z,92.20
2018-06-08T23:03:22.386Z,94.50
2018-06-08T23:08:24.564Z,92.60
2018-06-08T23:13:26.750Z,94.60
2018-06-08T23:18:28.926Z,97.40
2018-06-08T23:23:31.121Z,99.90
2018-06-08T23:28:33.315Z,99.90
2018-06-08T23:33:35.465Z,99.90
2018-06-08T23:38:37.631Z,99.90
2018-06-08T23:43:39.774Z,98.60
2018-06-08T23:48:41.939Z,99.10
2018-06-08T23:53:44.078Z,99.90
2018-06-08T23:58:46.207Z,99.90
